Time;durP1;ratioP1;P1;durP2;ratioP2;P2;SDS_P1;SDS_P2;PMS_P1;PMS_P2;Temp;Humidity;BMP_temperature;BMP_pressure;BME280_temperature;BME280_humidity;BME280_pressure;Samples;Min_cycle;Max_cycle;Signal;HPM_P1;HPM_P2
2021/12/14 00:01:19;;;;;;;;;;;;;;;10.79;100.00;99712.28;5097527;28;19928;-76
2021/12/14 00:03:48;;;;;;;;;;;;;;;10.79;100.00;99701.13;5097333;28;19978;-76
2021/12/14 00:06:16;;;;;;;;;;;;;;;10.83;100.00;99693.47;5097444;28;19931;-76
2021/12/14 00:09:03;;;;;;;;;;;;;;;10.86;100.00;99698.25;5097330;28;19931;-76
2021/12/14 00:16:46;;;;;;;;;;;;;;;10.79;100.00;99682.34;5097152;28;20016;-76
2021/12/14 00:19:13;;;;;;;;;;;;;;;10.90;100.00;99676.69;5095538;28;20313;-76
2021/12/14 00:21:43;;;;;;;;;;;;;;;10.95;100.00;99676.22;5113090;28;19924;-76
2021/12/14 00:24:14;;;;;;;;;;;;;;;10.86;100.00;99681.47;5097184;28;19924;-76
2021/12/14 00:26:43;;;;;;;;;;;;;;;10.76;100.00;99673.97;5095870;28;19931;-76
2021/12/14 00:29:16;;;;;;;;;;;;;;;10.70;100.00;99675.63;5097085;28;19946;-76
2021/12/14 00:31:45;;;;;;;;;;;;;;;10.51;100.00;99682.53;5095614;28;19924;-76
2021/12/14 00:34:21;;;;;;;;;;;;;;;10.33;100.00;99679.03;5096554;28;19939;-76
2021/12/14 00:36:49;;;;;;;;;;;;;;;10.28;100.00;99673.91;5095639;28;19931;-76
2021/12/14 00:39:17;;;;;;;;;;;;;;;10.55;100.00;99676.91;5095548;28;19928;-76
2021/12/14 00:41:44;;;;;;;;;;;;;;;10.65;100.00;99681.63;5096826;28;19956;-76
2021/12/14 00:44:12;;;;;;;;;;;;;;;10.64;100.00;99680.06;5095468;28;19924;-76
2021/12/14 00:46:39;;;;;;;;;;;;;;;10.64;100.00;99683.66;5096546;28;19924;-76
2021/12/14 00:49:10;;;;;;;;;;;;;;;10.64;100.00;99674.47;5096611;28;20398;-76
2021/12/14 00:51:37;;;;;;;;;;;;;;;10.66;100.00;99672.84;5078453;28;20301;-76
2021/12/14 00:54:06;;;;;;;;;;;;;;;10.67;100.00;99674.44;5094861;28;19994;-76
2021/12/14 00:56:33;;;;;;;;;;;;;;;10.68;100.00;99680.81;5095286;28;19930;-76
2021/12/14 00:59:01;;;;;;;;;;;;;;;10.65;100.00;99679.66;5095149;28;20362;-76
2021/12/14 01:01:32;;;;;;;;;;;;;;;10.68;100.00;99692.00;5093500;28;19943;-76
2021/12/14 01:04:01;;;;;;;;;;;;;;;10.67;100.00;99682.84;5095099;28;20441;-76
2021/12/14 01:06:30;;;;;;;;;;;;;;;10.70;100.00;99684.81;5095114;28;19924;-76
2021/12/14 01:08:58;;;;;;;;;;;;;;;10.72;100.00;99682.38;5094994;28;19969;-76
2021/12/14 01:11:36;;;;;;;;;;;;;;;10.76;100.00;99687.97;5094983;28;19928;-76
2021/12/14 01:14:13;;;;;;;;;;;;;;;10.71;100.00;99682.78;5094967;28;19931;-76
2021/12/14 01:16:54;;;;;;;;;;;;;;;10.71;100.00;99680.00;5094772;28;19924;-76
2021/12/14 01:19:28;;;;;;;;;;;;;;;10.79;100.00;99675.97;5094878;28;19925;-76
2021/12/14 01:22:15;;;;;;;;;;;;;;;10.76;100.00;99669.19;5094829;28;19924;-76
2021/12/14 01:27:17;;;;;;;;;;;;;;;10.75;100.00;99666.81;5094614;28;19934;-76
2021/12/14 01:29:46;;;;;;;;;;;;;;;10.81;100.00;99673.56;5094617;28;19931;-76
2021/12/14 01:32:14;;;;;;;;;;;;;;;10.76;100.00;99676.78;5094224;28;19955;-76
2021/12/14 01:34:41;;;;;;;;;;;;;;;10.74;100.00;99668.00;5060984;28;20273;-76
2021/12/14 01:37:14;;;;;;;;;;;;;;;10.74;100.00;99670.78;5077611;28;20015;-76
2021/12/14 01:39:48;;;;;;;;;;;;;;;10.75;100.00;99686.38;5094467;28;19973;-76
2021/12/14 01:42:19;;;;;;;;;;;;;;;10.77;100.00;99681.16;5094431;28;19970;-76
2021/12/14 01:45:00;;;;;;;;;;;;;;;10.75;100.00;99684.34;5094126;28;19973;-76
2021/12/14 01:47:38;;;;;;;;;;;;;;;10.67;100.00;99679.22;5077585;28;19931;-76
2021/12/14 01:50:40;;;;;;;;;;;;;;;10.67;100.00;99679.22;5094272;28;20378;-76
2021/12/14 01:53:28;;;;;;;;;;;;;;;10.69;100.00;99688.00;5094035;28;19924;-76
2021/12/14 01:55:57;;;;;;;;;;;;;;;10.68;100.00;99692.00;5094164;28;20008;-76
2021/12/14 01:58:25;;;;;;;;;;;;;;;10.69;100.00;99688.00;5094015;28;19924;-76
2021/12/14 02:00:55;;;;;;;;;;;;;;;10.72;100.00;99687.19;5093837;28;19924;-76
2021/12/14 02:03:28;;;;;;;;;;;;;;;10.71;100.00;99691.19;5093964;28;19963;-76
2021/12/14 02:05:55;;;;;;;;;;;;;;;10.74;100.00;99698.75;5056577;28;19928;-76
2021/12/14 02:08:25;;;;;;;;;;;;;;;10.73;100.00;99699.97;5090234;28;20026;-76
2021/12/14 02:10:54;;;;;;;;;;;;;;;10.69;100.00;99699.19;5090537;28;19974;-76
2021/12/14 02:13:23;;;;;;;;;;;;;;;10.72;100.00;99695.59;5073550;28;19925;-76
2021/12/14 02:15:51;;;;;;;;;;;;;;;10.62;100.00;99699.22;5073125;28;20031;-76
2021/12/14 02:18:23;;;;;;;;;;;;;;;10.55;100.00;99702.06;5090146;28;19925;-76
2021/12/14 02:20:59;;;;;;;;;;;;;;;10.55;100.00;99704.88;5073369;28;19925;-76
2021/12/14 02:23:27;;;;;;;;;;;;;;;10.57;100.00;99705.25;5090335;28;19928;-76
2021/12/14 02:25:55;;;;;;;;;;;;;;;10.56;100.00;99706.44;5090188;28;19932;-76
2021/12/14 02:28:23;;;;;;;;;;;;;;;10.52;100.00;99705.69;5056439;28;20377;-76
2021/12/14 02:30:52;;;;;;;;;;;;;;;10.57;100.00;99705.25;5090018;28;19925;-76
2021/12/14 02:33:21;;;;;;;;;;;;;;;10.59;100.00;99708.41;5056606;28;19924;-76
2021/12/14 02:35:49;;;;;;;;;;;;;;;10.54;100.00;99714.47;5089925;28;19925;-76
2021/12/14 02:38:17;;;;;;;;;;;;;;;10.67;100.00;99718.38;5089863;28;19929;-76
2021/12/14 02:40:54;;;;;;;;;;;;;;;10.69;100.00;99716.75;5089880;28;19928;-76
2021/12/14 02:43:32;;;;;;;;;;;;;;;10.57;100.00;99716.44;5039825;28;19931;-76
2021/12/14 02:46:08;;;;;;;;;;;;;;;10.25;100.00;99713.00;5089728;28;20011;-76
2021/12/14 02:48:36;;;;;;;;;;;;;;;10.43;100.00;99719.31;5089834;28;19931;-76
2021/12/14 02:51:07;;;;;;;;;;;;;;;10.51;100.00;99712.47;5072983;28;19924;-76
2021/12/14 02:53:36;;;;;;;;;;;;;;;10.51;100.00;99704.09;5072879;28;19925;-76
2021/12/14 02:56:09;;;;;;;;;;;;;;;10.50;100.00;99708.88;5089729;28;19928;-76
2021/12/14 02:58:36;;;;;;;;;;;;;;;10.63;100.00;99714.81;5072450;28;19952;-76
2021/12/14 03:01:04;;;;;;;;;;;;;;;10.52;100.00;99705.69;5089576;28;19924;-76
2021/12/14 03:03:34;;;;;;;;;;;;;;;10.61;100.00;99708.81;5072789;28;19924;-76
2021/12/14 03:06:01;;;;;;;;;;;;;;;10.62;100.00;99699.22;5089353;28;20389;-76
2021/12/14 03:08:32;;;;;;;;;;;;;;;10.55;100.00;99688.91;5072735;28;19924;-76
2021/12/14 03:11:12;;;;;;;;;;;;;;;10.63;100.00;99684.06;5089424;28;19929;-76
2021/12/14 03:13:43;;;;;;;;;;;;;;;10.68;100.00;99683.59;5089300;28;19931;-76
2021/12/14 03:16:14;;;;;;;;;;;;;;;10.60;100.00;99680.06;5072424;28;19947;-76
2021/12/14 03:18:44;;;;;;;;;;;;;;;10.68;100.00;99680.81;5089224;28;20318;-76
2021/12/14 03:21:13;;;;;;;;;;;;;;;10.72;100.00;99681.59;5072682;28;20283;-76
2021/12/14 03:23:42;;;;;;;;;;;;;;;10.72;100.00;99676.00;5089339;28;19925;-76
2021/12/14 03:26:11;;;;;;;;;;;;;;;10.75;100.00;99686.38;5072168;28;19971;-76
2021/12/14 03:28:39;;;;;;;;;;;;;;;10.82;100.00;99675.13;5072578;28;19924;-76
2021/12/14 03:31:21;;;;;;;;;;;;;;;10.86;100.00;99685.09;5089127;28;20270;-76
2021/12/14 03:33:51;;;;;;;;;;;;;;;10.83;100.00;99676.72;5075596;28;19989;-76
2021/12/14 03:36:22;;;;;;;;;;;;;;;10.78;100.00;99677.16;5109426;28;20022;-76
2021/12/14 03:38:52;;;;;;;;;;;;;;;10.77;100.00;99679.16;5092600;28;19924;-76
2021/12/14 03:41:25;;;;;;;;;;;;;;;10.80;100.00;99677.53;5109198;28;20395;-76
2021/12/14 03:43:58;;;;;;;;;;;;;;;10.80;100.00;99677.53;5092555;28;19959;-76
2021/12/14 03:46:31;;;;;;;;;;;;;;;10.68;100.00;99675.22;5109462;28;19975;-76
2021/12/14 03:48:59;;;;;;;;;;;;;;;10.77;100.00;99684.75;5092594;28;19932;-76
2021/12/14 03:51:27;;;;;;;;;;;;;;;10.87;100.00;99675.47;5109365;28;19967;-76
2021/12/14 03:53:56;;;;;;;;;;;;;;;10.48;100.00;99674.19;5109174;28;19924;-76
2021/12/14 03:56:25;;;;;;;;;;;;;;;10.63;100.00;99679.25;5092160;28;20364;-76
2021/12/14 03:58:52;;;;;;;;;;;;;;;10.71;100.00;99682.78;5109370;28;20024;-76
2021/12/14 04:01:22;;;;;;;;;;;;;;;10.71;100.00;99680.00;5109354;28;19928;-76
2021/12/14 04:03:59;;;;;;;;;;;;;;;10.66;100.00;99677.66;5109309;28;19930;-76
2021/12/14 04:06:31;;;;;;;;;;;;;;;10.52;100.00;99684.13;5109305;28;19924;-76
2021/12/14 04:08:59;;;;;;;;;;;;;;;10.34;100.00;99683.44;5093587;28;20018;-76
2021/12/14 04:11:28;;;;;;;;;;;;;;;10.26;100.00;99681.06;5109000;28;19951;-76
2021/12/14 04:13:56;;;;;;;;;;;;;;;10.28;100.00;99679.47;5109328;28;20011;-76
2021/12/14 04:16:36;;;;;;;;;;;;;;;10.32;100.00;99674.66;5092292;28;19924;-76
2021/12/14 04:19:09;;;;;;;;;;;;;;;9.96;100.00;99673.22;5092257;28;19924;-76
2021/12/14 04:21:38;;;;;;;;;;;;;;;9.87;100.00;99663.66;5092362;28;20017;-76
2021/12/14 04:24:11;;;;;;;;;;;;;;;10.21;100.00;99671.13;5076976;28;19925;-76
2021/12/14 04:26:45;;;;;;;;;;;;;;;10.28;100.00;99667.50;5071896;28;20011;-76
2021/12/14 04:29:16;;;;;;;;;;;;;;;10.52;100.00;99672.16;5088976;28;20014;-76
2021/12/14 04:31:44;;;;;;;;;;;;;;;10.44;100.00;99671.41;5092596;28;19932;-76
2021/12/14 04:34:14;;;;;;;;;;;;;;;10.16;100.00;99670.75;5092378;28;20271;-76
2021/12/14 04:36:44;;;;;;;;;;;;;;;10.31;100.00;99678.66;5092329;28;20074;-76
2021/12/14 04:53:35;;;;;;;;;;;;;;;10.61;100.00;99697.63;5076394;28;20371;-76
2021/12/14 04:56:04;;;;;;;;;;;;;;;10.70;100.00;99697.97;5075343;28;20351;-76
2021/12/14 04:58:46;;;;;;;;;;;;;;;10.81;100.00;99701.50;5075232;28;19924;-76
2021/12/14 05:01:14;;;;;;;;;;;;;;;10.86;100.00;99709.44;5092136;28;20290;-76
2021/12/14 05:03:51;;;;;;;;;;;;;;;10.91;100.00;99700.63;5091984;28;19932;-76
2021/12/14 05:06:22;;;;;;;;;;;;;;;10.95;100.00;99690.19;5058447;28;20358;-76
2021/12/14 05:11:24;;;;;;;;;;;;;;;10.84;100.00;99681.13;5075201;28;20375;-76
2021/12/14 05:13:58;;;;;;;;;;;;;;;10.91;100.00;99675.47;5075036;28;19947;-76
2021/12/14 05:16:32;;;;;;;;;;;;;;;10.93;100.00;99664.66;5074998;28;20375;-76
2021/12/14 05:19:06;;;;;;;;;;;;;;;10.92;100.00;99668.66;5074794;28;19925;-76
2021/12/14 05:21:37;;;;;;;;;;;;;;;10.94;100.00;99678.25;5091737;28;20026;-76
2021/12/14 05:24:08;;;;;;;;;;;;;;;10.96;100.00;99675.03;5091381;28;20062;-76
2021/12/14 05:26:41;;;;;;;;;;;;;;;10.99;100.00;99674.22;5091608;28;20417;-76
2021/12/14 05:29:10;;;;;;;;;;;;;;;10.98;100.00;99681.00;5091687;28;19924;-76
2021/12/14 05:31:42;;;;;;;;;;;;;;;10.94;100.00;99671.84;5074733;28;19951;-76
2021/12/14 05:34:10;;;;;;;;;;;;;;;10.97;100.00;99676.63;5091318;28;19956;-76
2021/12/14 05:36:39;;;;;;;;;;;;;;;11.07;100.00;99677.75;5057935;28;19924;-76
2021/12/14 05:39:24;;;;;;;;;;;;;;;11.03;100.00;99680.56;5091462;28;19924;-76
2021/12/14 05:45:13;;;;;;;;;;;;;;;11.01;100.00;99694.19;5074312;28;20339;-76
2021/12/14 05:47:45;;;;;;;;;;;;;;;10.95;100.00;99687.41;5082830;28;19924;-76
2021/12/14 05:50:24;;;;;;;;;;;;;;;11.02;100.00;99684.56;5111526;28;19974;-76
2021/12/14 05:52:54;;;;;;;;;;;;;;;10.91;100.00;99690.25;5095388;28;19924;-76
2021/12/14 05:55:33;;;;;;;;;;;;;;;10.96;100.00;99680.63;5094566;28;20015;-75
2021/12/14 05:58:02;;;;;;;;;;;;;;;10.90;100.00;99690.66;5077688;28;19924;-76
2021/12/14 06:00:33;;;;;;;;;;;;;;;11.06;100.00;99684.56;5094322;28;20270;-75
2021/12/14 06:03:06;;;;;;;;;;;;;;;11.02;100.00;99689.38;5108703;28;19970;-76
2021/12/14 06:05:34;;;;;;;;;;;;;;;10.82;100.00;99687.13;5085686;28;19931;-76
2021/12/14 06:08:01;;;;;;;;;;;;;;;11.01;100.00;99688.59;5090781;28;19924;-77
2021/12/14 06:10:32;;;;;;;;;;;;;;;11.13;100.00;99690.88;5087854;28;19924;-76
2021/12/14 06:13:00;;;;;;;;;;;;;;;11.02;100.00;99695.75;5086534;28;19928;-76
2021/12/14 06:15:29;;;;;;;;;;;;;;;11.12;100.00;99699.69;5109062;28;20038;-76
2021/12/14 06:18:23;;;;;;;;;;;;;;;11.14;100.00;99698.06;5091321;28;20023;-77
2021/12/14 06:21:02;;;;;;;;;;;;;;;11.14;100.00;99692.47;5095260;28;19925;-76
2021/12/14 06:23:34;;;;;;;;;;;;;;;11.18;100.00;99698.81;5108462;28;19945;-76
2021/12/14 06:26:32;;;;;;;;;;;;;;;10.79;100.00;99709.50;5086837;28;19949;-76
2021/12/14 06:29:19;;;;;;;;;;;;;;;10.71;100.00;99713.53;5099002;28;19934;-76
2021/12/14 06:31:47;;;;;;;;;;;;;;;10.67;100.00;99707.19;5092169;28;20019;-77
2021/12/14 06:34:27;;;;;;;;;;;;;;;10.82;100.00;99712.28;5089818;28;19975;-76
2021/12/14 06:37:03;;;;;;;;;;;;;;;10.79;100.00;99715.91;5105481;28;19932;-76
2021/12/14 06:39:55;;;;;;;;;;;;;;;10.54;100.00;99720.81;5086355;28;21862;-76
2021/12/14 06:42:22;;;;;;;;;;;;;;;10.08;100.00;99720.25;5098422;28;19924;-76
2021/12/14 06:44:50;;;;;;;;;;;;;;;9.89;100.00;99733.84;5074874;28;20011;-76
2021/12/14 06:47:17;;;;;;;;;;;;;;;9.67;100.00;99735.88;5105181;28;19928;-76
2021/12/14 06:49:45;;;;;;;;;;;;;;;10.05;100.00;99732.19;5089175;28;19970;-76
2021/12/14 06:52:13;;;;;;;;;;;;;;;10.08;100.00;99739.81;5094157;28;19924;-76
2021/12/14 06:54:48;;;;;;;;;;;;;;;9.64;100.00;99733.09;5093109;28;19924;-76
2021/12/14 06:57:35;;;;;;;;;;;;;;;10.13;100.00;99738.59;5093078;28;19932;-76
2021/12/14 07:00:12;;;;;;;;;;;;;;;10.17;100.00;99739.34;5093021;28;20015;-76
2021/12/14 07:02:51;;;;;;;;;;;;;;;10.34;100.00;99747.69;5092892;28;20003;-76
2021/12/14 07:05:33;;;;;;;;;;;;;;;10.16;100.00;99754.53;5092704;28;20347;-76
2021/12/14 07:08:07;;;;;;;;;;;;;;;10.14;100.00;99745.75;5076013;28;19985;-76
2021/12/14 07:10:35;;;;;;;;;;;;;;;9.88;100.00;99751.78;5093000;28;19924;-76
2021/12/14 07:13:11;;;;;;;;;;;;;;;10.29;100.00;99755.66;5092909;28;20309;-76
2021/12/14 07:15:38;;;;;;;;;;;;;;;10.47;100.00;99756.38;5087145;28;20077;-76
2021/12/14 07:18:07;;;;;;;;;;;;;;;10.37;100.00;99749.66;5082812;28;19928;-76
2021/12/14 07:20:40;;;;;;;;;;;;;;;10.37;100.00;99752.47;5097983;28;20291;-76
2021/12/14 07:23:17;;;;;;;;;;;;;;;10.31;100.00;99747.69;5088271;28;19940;-76
2021/12/14 07:25:48;;;;;;;;;;;;;;;10.30;100.00;99746.88;5092239;28;19924;-77
2021/12/14 07:28:16;;;;;;;;;;;;;;;10.28;100.00;99740.94;5092257;28;19924;-76
2021/12/14 07:30:45;;;;;;;;;;;;;;;10.13;100.00;99744.16;5090955;28;20278;-77
2021/12/14 07:33:16;;;;;;;;;;;;;;;10.40;100.00;99739.66;5093535;28;19931;-76
2021/12/14 07:35:49;;;;;;;;;;;;;;;10.32;100.00;99740.88;5091289;28;19924;-76
2021/12/14 07:38:25;;;;;;;;;;;;;;;10.58;100.00;99738.38;5093715;28;20336;-76
2021/12/14 07:41:00;;;;;;;;;;;;;;;10.52;100.00;99744.78;5093527;28;20420;-76
2021/12/14 07:43:31;;;;;;;;;;;;;;;10.67;100.00;99740.72;5093783;28;19974;-76
2021/12/14 07:45:58;;;;;;;;;;;;;;;10.63;100.00;99742.75;5109254;28;19974;-76
2021/12/14 07:49:01;;;;;;;;;;;;;;;10.74;100.00;99741.47;5093461;28;20267;-79
2021/12/14 07:51:29;;;;;;;;;;;;;;;10.68;100.00;99747.88;5071018;28;19931;-76
2021/12/14 07:54:25;;;;;;;;;;;;;;;10.72;100.00;99745.91;5067468;28;19935;-78
2021/12/14 07:57:23;;;;;;;;;;;;;;;10.80;100.00;99750.22;5018195;28;19932;-76
2021/12/14 08:00:15;;;;;;;;;;;;;;;10.88;100.00;99757.38;5062354;28;20358;-76
2021/12/14 08:02:45;;;;;;;;;;;;;;;10.69;100.00;99755.88;5056413;28;19927;-76
2021/12/14 08:05:17;;;;;;;;;;;;;;;10.93;100.00;99757.72;5064920;28;20038;-76
2021/12/14 08:07:53;;;;;;;;;;;;;;;10.69;100.00;99758.66;5060478;28;19925;-76
2021/12/14 08:10:24;;;;;;;;;;;;;;;10.27;100.00;99750.50;5066836;28;20015;-76
2021/12/14 08:12:52;;;;;;;;;;;;;;;10.33;100.00;99765.63;5063140;28;19924;-75
2021/12/14 08:15:24;;;;;;;;;;;;;;;10.51;100.00;99757.97;5054953;28;19932;-77
2021/12/14 08:18:17;;;;;;;;;;;;;;;10.85;100.00;99763.78;5057528;28;19924;-75
2021/12/14 08:20:47;;;;;;;;;;;;;;;10.94;100.00;99761.31;5071798;28;19928;-75
2021/12/14 08:23:14;;;;;;;;;;;;;;;10.86;100.00;99762.56;5074564;28;20404;-75
2021/12/14 08:25:42;;;;;;;;;;;;;;;10.95;100.00;99760.91;5103692;28;19924;-75
2021/12/14 08:28:10;;;;;;;;;;;;;;;11.07;100.00;99759.66;5097230;28;20058;-76
2021/12/14 08:30:40;;;;;;;;;;;;;;;11.09;100.00;99767.63;5095855;28;20018;-76
2021/12/14 08:33:18;;;;;;;;;;;;;;;10.83;100.00;99760.59;5086061;28;19924;-75
2021/12/14 08:35:46;;;;;;;;;;;;;;;10.67;100.00;99765.88;5088457;28;19931;-75
2021/12/14 08:38:14;;;;;;;;;;;;;;;10.61;100.00;99775.88;5089978;28;20271;-75
2021/12/14 08:40:44;;;;;;;;;;;;;;;10.87;100.00;99778.94;5089749;28;20318;-75
2021/12/14 08:43:20;;;;;;;;;;;;;;;10.85;100.00;99778.56;5088616;28;20619;-75
2021/12/14 08:45:49;;;;;;;;;;;;;;;10.81;100.00;99779.78;5088435;28;19997;-74
2021/12/14 08:48:21;;;;;;;;;;;;;;;10.95;100.00;99772.09;5088985;28;19928;-74
2021/12/14 08:50:48;;;;;;;;;;;;;;;10.98;100.00;99778.84;5089748;28;19928;-75
2021/12/14 08:53:15;;;;;;;;;;;;;;;11.02;100.00;99776.84;5064890;28;19949;-74
2021/12/14 08:55:46;;;;;;;;;;;;;;;11.29;100.00;99777.06;5073598;28;20307;-74
2021/12/14 08:58:13;;;;;;;;;;;;;;;11.13;100.00;99777.59;5074304;28;19951;-74
2021/12/14 09:00:44;;;;;;;;;;;;;;;11.17;100.00;99775.56;5089308;28;19927;-75
2021/12/14 09:03:13;;;;;;;;;;;;;;;11.26;100.00;99780.66;5089679;28;20432;-75
2021/12/14 09:05:44;;;;;;;;;;;;;;;11.27;100.00;99777.47;5086935;28;20021;-72
2021/12/14 09:08:11;;;;;;;;;;;;;;;11.23;100.00;99770.31;5089228;28;20469;-73
2021/12/14 09:10:38;;;;;;;;;;;;;;;11.21;100.00;99776.31;5088182;28;20464;-73
2021/12/14 09:13:08;;;;;;;;;;;;;;;11.35;100.00;99776.22;5080194;28;20077;-73
2021/12/14 09:15:55;;;;;;;;;;;;;;;11.62;100.00;99771.63;5083950;28;20015;-74
2021/12/14 09:18:23;;;;;;;;;;;;;;;11.45;100.00;99769.72;5085285;28;20457;-75
2021/12/14 09:20:51;;;;;;;;;;;;;;;11.56;100.00;99776.03;5086644;28;19924;-74
2021/12/14 09:23:33;;;;;;;;;;;;;;;11.79;100.00;99773.47;5088156;28;20659;-75
2021/12/14 09:26:03;;;;;;;;;;;;;;;11.60;100.00;99770.41;5103912;28;19928;-75
2021/12/14 09:28:31;;;;;;;;;;;;;;;11.55;100.00;99774.44;5070296;28;20019;-74
2021/12/14 09:31:01;;;;;;;;;;;;;;;11.66;100.00;99775.16;5087750;28;19936;-74
2021/12/14 09:33:29;;;;;;;;;;;;;;;11.49;100.00;99770.50;5088185;28;19973;-75
2021/12/14 09:35:57;;;;;;;;;;;;;;;11.81;100.00;99765.44;5087734;28;19930;-74
2021/12/14 09:38:32;;;;;;;;;;;;;;;11.85;100.00;99769.00;5088132;28;20467;-75
2021/12/14 09:41:02;;;;;;;;;;;;;;;11.92;100.00;99771.72;5089209;28;20022;-75
2021/12/14 09:43:32;;;;;;;;;;;;;;;11.96;100.00;99772.50;5087690;28;20711;-76
2021/12/14 09:46:00;;;;;;;;;;;;;;;11.65;100.00;99767.97;5087657;28;20015;-78
2021/12/14 09:48:30;;;;;;;;;;;;;;;12.04;100.00;99773.22;5090643;28;19996;-78
2021/12/14 09:51:03;;;;;;;;;;;;;;;11.92;100.00;99773.75;5090015;28;19935;-76
2021/12/14 09:53:30;;;;;;;;;;;;;;;11.85;100.00;99777.41;5088734;28;19924;-76
2021/12/14 09:55:58;;;;;;;;;;;;;;;11.97;100.00;99787.28;5086655;28;20282;-75
2021/12/14 09:58:27;;;;;;;;;;;;;;;12.20;100.00;99782.63;5087825;28;19965;-78
2021/12/14 10:01:21;;;;;;;;;;;;;;;12.08;100.00;99785.97;5088664;28;19989;-77
2021/12/14 10:03:52;;;;;;;;;;;;;;;12.41;100.00;99788.00;5100073;28;19924;-77
2021/12/14 10:06:24;;;;;;;;;;;;;;;12.40;100.00;99777.97;5067250;28;20482;-77
2021/12/14 10:08:57;;;;;;;;;;;;;;;12.57;100.00;99784.59;5087733;28;19939;-77
2021/12/14 10:12:02;;;;;;;;;;;;;;;12.49;100.00;99774.69;5087396;28;20303;-75
2021/12/14 10:14:33;;;;;;;;;;;;;;;12.44;100.00;99783.53;5087650;28;20378;-75
2021/12/14 10:17:01;;;;;;;;;;;;;;;12.06;100.00;99782.78;5088249;28;19924;-77
2021/12/14 10:19:30;;;;;;;;;;;;;;;12.30;100.00;99776.09;5090932;28;19928;-77
2021/12/14 10:21:59;;;;;;;;;;;;;;;12.29;100.00;99785.72;5089245;28;20023;-77
2021/12/14 10:24:27;;;;;;;;;;;;;;;12.10;100.00;99794.72;5087120;28;19928;-78
2021/12/14 10:26:56;;;;;;;;;;;;;;;12.22;100.00;99797.00;5087511;28;19931;-77
2021/12/14 10:29:26;;;;;;;;;;;;;;;12.09;100.00;99797.94;5090665;28;19968;-78
2021/12/14 10:31:59;;;;;;;;;;;;;;;11.93;100.00;99797.72;5092165;28;19924;-75
2021/12/14 10:34:28;;;;;;;;;;;;;;;12.02;100.00;99803.63;5094761;28;19962;-76
2021/12/14 10:37:08;;;;;;;;;;;;;;;11.89;100.00;99792.16;5094594;28;19924;-76
2021/12/14 10:39:38;;;;;;;;;;;;;;;12.15;100.00;99794.28;5094798;28;19931;-75
2021/12/14 10:44:57;;;;;;;;;;;;;;;12.13;100.00;99795.94;5093453;28;19931;-76
2021/12/14 10:47:25;;;;;;;;;;;;;;;12.32;100.00;99793.31;5094711;28;20274;-74
2021/12/14 10:49:53;;;;;;;;;;;;;;;12.38;100.00;99788.81;5093468;28;20259;-76
2021/12/14 10:52:22;;;;;;;;;;;;;;;12.10;100.00;99786.31;5094169;28;19977;-75
2021/12/14 10:54:53;;;;;;;;;;;;;;;11.95;100.00;99775.72;5093736;28;19931;-75
2021/12/14 10:57:24;;;;;;;;;;;;;;;11.93;100.00;99778.94;5092512;28;19928;-75
2021/12/14 10:59:52;;;;;;;;;;;;;;;12.00;100.00;99781.63;5093780;28;19924;-75
2021/12/14 11:02:22;;;;;;;;;;;;;;;12.22;100.00;99780.19;5093613;28;19947;-75
2021/12/14 11:04:54;;;;;;;;;;;;;;;12.00;100.00;99773.25;5093607;28;19931;-76
2021/12/14 11:07:23;;;;;;;;;;;;;;;12.41;100.00;99775.97;5094267;28;19973;-75
2021/12/14 11:09:55;;;;;;;;;;;;;;;12.41;100.00;99768.38;5092963;28;19934;-76
2021/12/14 11:12:27;;;;;;;;;;;;;;;12.20;100.00;99763.03;5092736;28;19924;-76
2021/12/14 11:14:57;;;;;;;;;;;;;;;12.06;100.00;99771.56;5091452;28;19978;-76
2021/12/14 11:20:20;;;;;;;;;;;;;;;12.23;100.00;99766.97;5075284;28;19928;-75
2021/12/14 11:22:56;;;;;;;;;;;;;;;12.18;100.00;99767.44;5076486;28;20418;-75
2021/12/14 11:25:35;;;;;;;;;;;;;;;11.95;100.00;99762.47;5078376;28;19939;-75
2021/12/14 11:28:30;;;;;;;;;;;;;;;12.15;100.00;99771.06;5084961;28;19924;-75
2021/12/14 11:31:01;;;;;;;;;;;;;;;12.41;100.00;99764.75;5082855;28;19924;-75
2021/12/14 11:33:43;;;;;;;;;;;;;;;12.35;100.00;99772.03;5079963;28;19931;-75
2021/12/14 11:36:25;;;;;;;;;;;;;;;12.52;100.00;99769.03;5075817;28;19924;-75
2021/12/14 11:38:58;;;;;;;;;;;;;;;12.48;100.00;99765.47;5088139;28;19939;-75
2021/12/14 11:41:43;;;;;;;;;;;;;;;12.29;100.00;99766.13;5080942;28;20379;-75
2021/12/14 11:44:24;;;;;;;;;;;;;;;12.35;100.00;99756.03;5081269;28;19924;-76
2021/12/14 11:47:32;;;;;;;;;;;;;;;12.07;100.00;99761.94;5088710;28;20353;-75
2021/12/14 11:50:00;;;;;;;;;;;;;;;12.28;100.00;99767.31;5083964;28;19938;-76
2021/12/14 11:52:51;;;;;;;;;;;;;;;12.21;100.00;99761.81;5077988;28;19925;-75
2021/12/14 11:55:21;;;;;;;;;;;;;;;12.47;100.00;99761.09;5072481;28;19931;-75
2021/12/14 11:57:48;;;;;;;;;;;;;;;11.79;100.00;99756.66;5073300;28;20644;-76
2021/12/14 12:00:20;;;;;;;;;;;;;;;12.26;100.00;99755.75;5082402;28;20397;-75
2021/12/14 12:02:48;;;;;;;;;;;;;;;12.24;100.00;99760.97;5091488;28;19932;-76
2021/12/14 12:05:20;;;;;;;;;;;;;;;12.37;100.00;99756.38;5095764;28;20405;-77
2021/12/14 12:10:42;;;;;;;;;;;;;;;12.56;100.00;99755.75;5094442;28;20019;-76
2021/12/14 12:13:09;;;;;;;;;;;;;;;12.63;100.00;99743.66;5111503;28;19932;-77
2021/12/14 12:15:39;;;;;;;;;;;;;;;12.73;100.00;99737.91;5096585;28;19924;-76
2021/12/14 12:18:06;;;;;;;;;;;;;;;12.45;100.00;99743.09;5095726;28;19928;-77
2021/12/14 12:20:38;;;;;;;;;;;;;;;12.54;100.00;99741.38;5096342;28;19924;-76
2021/12/14 12:23:07;;;;;;;;;;;;;;;12.38;100.00;99732.78;5096386;28;19924;-76
2021/12/14 12:25:42;;;;;;;;;;;;;;;12.77;100.00;99732.25;5094829;28;19931;-76
2021/12/14 12:28:14;;;;;;;;;;;;;;;12.75;100.00;99724.25;5091433;28;19985;-77
2021/12/14 12:30:46;;;;;;;;;;;;;;;12.47;100.00;99724.66;5110984;28;20055;-76
2021/12/14 12:33:22;;;;;;;;;;;;;;;12.50;100.00;99728.59;5096041;28;19928;-77
2021/12/14 12:35:49;;;;;;;;;;;;;;;12.84;100.00;99722.94;5095509;28;20510;-77
2021/12/14 12:38:29;;;;;;;;;;;;;;;12.81;100.00;99727.38;5091928;28;20634;-76
2021/12/14 12:41:12;;;;;;;;;;;;;;;13.00;100.00;99726.72;5098292;28;19967;-77
2021/12/14 12:44:07;;;;;;;;;;;;;;;12.95;100.00;99720.78;5079465;28;20012;-77
2021/12/14 12:47:01;;;;;;;;;;;;;;;13.26;100.00;99725.91;5093969;28;20015;-77
2021/12/14 12:49:28;;;;;;;;;;;;;;;13.25;100.00;99723.53;5077754;28;20371;-76
2021/12/14 12:52:00;;;;;;;;;;;;;;;13.09;100.00;99732.59;5074823;28;19924;-77
2021/12/14 12:54:33;;;;;;;;;;;;;;;12.75;100.00;99724.25;5075712;28;20341;-76
2021/12/14 12:57:16;;;;;;;;;;;;;;;12.85;100.00;99727.31;5075718;28;19970;-76
2021/12/14 12:59:43;;;;;;;;;;;;;;;12.86;100.00;99734.53;5075505;28;19924;-76
2021/12/14 13:02:21;;;;;;;;;;;;;;;13.04;100.00;99729.47;5072448;28;20098;-76
2021/12/14 13:04:50;;;;;;;;;;;;;;;12.75;100.00;99734.69;5075511;28;19925;-76
2021/12/14 13:07:18;;;;;;;;;;;;;;;13.05;100.00;99731.06;5075260;28;19980;-76
2021/12/14 13:10:06;;;;;;;;;;;;;;;12.74;100.00;99731.09;5075458;28;19925;-76
2021/12/14 13:12:53;;;;;;;;;;;;;;;12.91;100.00;99736.84;5075455;28;19924;-76
2021/12/14 13:15:39;;;;;;;;;;;;;;;12.28;100.00;99733.69;5075260;28;19967;-76
2021/12/14 13:18:18;;;;;;;;;;;;;;;12.91;100.00;99739.66;5090882;28;20388;-76
2021/12/14 13:20:47;;;;;;;;;;;;;;;12.93;100.00;99734.41;5074962;28;19974;-76
2021/12/14 13:23:14;;;;;;;;;;;;;;;12.64;100.00;99748.84;5074011;28;19931;-76
2021/12/14 13:25:43;;;;;;;;;;;;;;;12.55;100.00;99742.97;5075155;28;19994;-76
2021/12/14 13:28:12;;;;;;;;;;;;;;;12.33;100.00;99730.44;5075028;28;20398;-76
2021/12/14 13:30:39;;;;;;;;;;;;;;;12.11;100.00;99740.31;5075014;28;19924;-76
2021/12/14 13:33:25;;;;;;;;;;;;;;;12.44;100.00;99741.50;5074993;28;20017;-76
2021/12/14 13:35:53;;;;;;;;;;;;;;;12.32;100.00;99736.44;5073171;28;19928;-76
2021/12/14 13:38:21;;;;;;;;;;;;;;;12.85;100.00;99742.16;5074902;28;20409;-76
2021/12/14 13:40:48;;;;;;;;;;;;;;;12.65;100.00;99739.22;5074724;28;20299;-76
2021/12/14 13:43:19;;;;;;;;;;;;;;;12.35;100.00;99728.00;5074812;28;20013;-76